Time;durP1;ratioP1;P1;durP2;ratioP2;P2;SDS_P1;SDS_P2;PMS_P1;PMS_P2;Temp;Humidity;BMP_temperature;BMP_pressure;BME280_temperature;BME280_humidity;BME280_pressure;Samples;Min_cycle;Max_cycle;Signal;HPM_P1;HPM_P2
2021/05/14 00:00:21;;;;;;;2.20;0.40;;;9.60;99.90;8.90;95678.00;;;;5067934;28;20224;-49
2021/05/14 00:03:10;;;;;;;0.23;0.23;;;9.60;99.90;9.00;95678.00;;;;5061843;28;20235;-49
2021/05/14 00:05:58;;;;;;;0.30;0.30;;;9.60;99.90;9.00;95680.00;;;;5068597;28;20219;-49
2021/05/14 00:08:46;;;;;;;0.30;0.30;;;9.60;99.90;8.90;95680.00;;;;5068416;28;20219;-51
2021/05/14 00:11:34;;;;;;;0.83;0.73;;;9.50;99.90;8.80;95673.00;;;;5068987;28;20219;-53
2021/05/14 00:14:23;;;;;;;0.40;0.40;;;9.50;99.90;8.70;95673.00;;;;5067470;28;20219;-50
2021/05/14 00:17:11;;;;;;;0.40;0.33;;;9.40;99.90;8.60;95672.00;;;;5069285;28;20687;-49
2021/05/14 00:20:00;;;;;;;0.63;0.40;;;9.40;99.90;8.50;95677.00;;;;5067976;28;20667;-49
2021/05/14 00:22:48;;;;;;;0.33;0.33;;;9.30;99.90;8.60;95678.00;;;;5067804;28;20231;-50
2021/05/14 00:25:37;;;;;;;0.30;0.30;;;9.30;99.90;8.70;95675.00;;;;5067598;28;20202;-51
2021/05/14 00:28:25;;;;;;;1.47;0.50;;;9.30;99.90;8.70;95668.00;;;;5067901;28;20227;-50
2021/05/14 00:31:13;;;;;;;0.70;0.30;;;9.30;99.90;8.80;95673.00;;;;5067841;28;20557;-50
2021/05/14 00:34:02;;;;;;;0.30;0.30;;;9.30;99.90;8.80;95682.00;;;;5065908;28;20207;-49
2021/05/14 00:36:51;;;;;;;0.40;0.30;;;9.30;99.90;8.80;95674.00;;;;5054511;28;20218;-49
2021/05/14 00:39:39;;;;;;;0.30;0.30;;;9.30;99.90;8.90;95674.00;;;;5067724;28;20238;-51
2021/05/14 00:42:27;;;;;;;2.13;0.40;;;9.40;99.90;8.90;95674.00;;;;5068557;28;20216;-50
2021/05/14 00:45:16;;;;;;;0.50;0.50;;;9.40;99.90;8.70;95679.00;;;;5067715;28;20212;-49
2021/05/14 00:48:05;;;;;;;0.50;0.33;;;9.40;99.90;8.70;95685.00;;;;5068262;28;20286;-49
2021/05/14 00:50:53;;;;;;;0.30;0.30;;;9.40;99.90;8.80;95678.00;;;;5067769;28;20204;-50
2021/05/14 00:53:43;;;;;;;0.30;0.30;;;9.30;99.90;8.60;95679.00;;;;5066881;28;20196;-52
2021/05/14 00:56:31;;;;;;;0.60;0.60;;;9.30;99.90;8.70;95675.00;;;;5067989;28;20228;-50
2021/05/14 00:59:20;;;;;;;0.30;0.30;;;9.30;99.90;8.70;95671.00;;;;5068497;28;20204;-50
2021/05/14 01:02:08;;;;;;;0.30;0.30;;;9.30;99.90;8.60;95677.00;;;;5068054;28;20259;-52
2021/05/14 01:04:57;;;;;;;0.40;0.40;;;9.30;99.90;8.60;95687.00;;;;5055408;28;20204;-50
2021/05/14 01:07:45;;;;;;;0.40;0.40;;;9.30;99.90;8.50;95676.00;;;;5067100;28;20310;-50
2021/05/14 01:10:34;;;;;;;0.50;0.50;;;9.20;99.90;8.40;95684.00;;;;5066694;28;20211;-52
2021/05/14 01:13:26;;;;;;;1.97;0.30;;;9.20;99.90;8.40;95678.00;;;;5067192;28;20216;-50
2021/05/14 01:16:14;;;;;;;0.30;0.30;;;9.10;99.90;8.50;95683.00;;;;5067727;28;20203;-49
2021/05/14 01:19:04;;;;;;;0.30;0.30;;;9.10;99.90;8.60;95693.00;;;;5069130;28;20212;-50
2021/05/14 01:21:53;;;;;;;0.30;0.30;;;9.10;99.90;8.60;95692.00;;;;5066738;28;20227;-50
2021/05/14 01:24:41;;;;;;;0.23;0.23;;;9.10;99.90;8.70;95681.00;;;;5067543;28;20207;-52
2021/05/14 01:27:30;;;;;;;0.30;0.30;;;9.20;99.90;8.60;95691.00;;;;5066709;28;20208;-50
2021/05/14 01:30:20;;;;;;;1.43;0.43;;;9.20;99.90;8.70;95687.00;;;;5067040;28;20204;-49
2021/05/14 01:33:08;;;;;;;0.83;0.30;;;9.20;99.90;8.80;95689.00;;;;5066560;28;20216;-49
2021/05/14 01:35:57;;;;;;;0.40;0.40;;;9.30;99.90;8.70;95692.00;;;;5066818;28;20215;-49
2021/05/14 01:38:46;;;;;;;0.57;0.50;;;9.30;99.90;8.70;95692.00;;;;5066023;28;20223;-50
2021/05/14 01:41:35;;;;;;;0.20;0.20;;;9.30;99.90;8.80;95687.00;;;;5066544;28;20223;-49
2021/05/14 01:44:24;;;;;;;0.33;0.30;;;9.30;99.90;8.80;95685.00;;;;5066144;28;20657;-50
2021/05/14 01:47:17;;;;;;;0.40;0.40;;;9.30;99.90;8.80;95684.00;;;;5054996;28;20196;-49
2021/05/14 01:50:08;;;;;;;0.40;0.40;;;9.30;99.90;8.60;95676.00;;;;5066989;28;20219;-52
2021/05/14 01:52:56;;;;;;;0.30;0.30;;;9.30;99.90;8.40;95679.00;;;;5057714;28;20239;-50
2021/05/14 01:55:45;;;;;;;0.30;0.30;;;9.20;99.90;8.50;95695.00;;;;5056952;28;20199;-49
2021/05/14 01:58:33;;;;;;;0.90;0.40;;;9.20;99.90;8.50;95687.00;;;;5055717;28;20211;-50
2021/05/14 02:01:22;;;;;;;0.20;0.20;;;9.10;99.90;8.50;95689.00;;;;5065270;28;20591;-51
2021/05/14 02:04:11;;;;;;;0.53;0.30;;;9.10;99.90;8.40;95690.00;;;;5061020;28;20698;-51
2021/05/14 02:06:59;;;;;;;0.30;0.30;;;9.10;99.90;8.50;95696.00;;;;5066121;28;20208;-51
2021/05/14 02:09:48;;;;;;;0.20;0.20;;;9.10;99.90;8.50;95692.00;;;;5066285;28;20694;-49
2021/05/14 02:12:37;;;;;;;0.53;0.20;;;9.10;99.90;8.50;95685.00;;;;5066072;28;20631;-48
2021/05/14 02:15:25;;;;;;;0.30;0.30;;;9.10;99.90;8.50;95688.00;;;;5066722;28;20200;-49
2021/05/14 02:18:14;;;;;;;0.30;0.30;;;9.10;99.90;8.60;95689.00;;;;5066927;28;20200;-51
2021/05/14 02:21:03;;;;;;;0.30;0.30;;;9.10;99.90;8.70;95694.00;;;;5064861;28;20231;-52
2021/05/14 02:23:51;;;;;;;0.93;0.50;;;9.10;99.90;8.40;95694.00;;;;5064007;28;20204;-53
2021/05/14 02:26:39;;;;;;;0.23;0.23;;;9.10;99.90;8.30;95710.00;;;;5066631;28;20196;-49
2021/05/14 02:29:28;;;;;;;0.30;0.30;;;9.10;99.90;8.20;95709.00;;;;5066455;28;20207;-51
2021/05/14 02:32:17;;;;;;;0.37;0.37;;;9.00;99.90;8.30;95709.00;;;;5064810;28;20699;-49
2021/05/14 02:35:06;;;;;;;0.80;0.80;;;8.90;99.90;8.40;95702.00;;;;5064692;28;20717;-49
2021/05/14 02:37:55;;;;;;;0.67;0.40;;;8.90;99.90;8.50;95705.00;;;;5059530;28;20207;-50
2021/05/14 02:40:44;;;;;;;0.33;0.33;;;9.00;99.90;8.60;95711.00;;;;5055604;28;20597;-50
2021/05/14 02:43:32;;;;;;;0.50;0.40;;;9.00;99.90;8.60;95722.00;;;;5066661;28;20212;-50
2021/05/14 02:46:21;;;;;;;0.57;0.40;;;9.00;99.90;8.50;95729.00;;;;5067411;28;20214;-49
2021/05/14 02:49:10;;;;;;;0.30;0.30;;;9.10;99.90;8.30;95721.00;;;;5066557;28;20200;-49
2021/05/14 02:51:58;;;;;;;0.40;0.37;;;9.10;99.90;8.30;95729.00;;;;5053519;28;20216;-48
2021/05/14 02:54:47;;;;;;;0.30;0.30;;;9.00;99.90;8.40;95724.00;;;;5065571;28;20313;-49
2021/05/14 02:57:36;;;;;;;0.53;0.40;;;9.00;99.90;8.20;95731.00;;;;5065310;28;20218;-50
2021/05/14 03:00:24;;;;;;;0.83;0.30;;;9.00;99.90;8.00;95727.00;;;;5066302;28;20577;-53
2021/05/14 03:03:14;;;;;;;0.20;0.20;;;8.90;99.90;8.10;95716.00;;;;5065513;28;20219;-50
2021/05/14 03:06:02;;;;;;;0.40;0.40;;;8.80;99.90;8.20;95722.00;;;;5065141;28;20203;-49
2021/05/14 03:08:51;;;;;;;0.27;0.27;;;8.80;99.90;8.30;95724.00;;;;5067042;28;20204;-50
2021/05/14 03:11:40;;;;;;;4.47;0.67;;;8.80;99.90;8.30;95723.00;;;;5065008;28;20610;-49
2021/05/14 03:14:28;;;;;;;0.67;0.67;;;8.80;99.90;8.10;95722.00;;;;5065164;28;20204;-53
2021/05/14 03:17:16;;;;;;;0.80;0.60;;;8.80;99.90;8.00;95721.00;;;;5065488;28;20200;-50
2021/05/14 03:20:10;;;;;;;0.43;0.40;;;8.80;99.90;8.10;95727.00;;;;5065360;28;20210;-49
2021/05/14 03:22:58;;;;;;;0.30;0.30;;;8.70;99.90;8.20;95727.00;;;;5064860;28;20227;-51
2021/05/14 03:25:46;;;;;;;0.50;0.50;;;8.80;99.90;8.30;95727.00;;;;5064654;28;20202;-49
2021/05/14 03:28:35;;;;;;;0.40;0.40;;;8.80;99.90;8.30;95733.00;;;;5065167;28;20200;-50
2021/05/14 03:31:23;;;;;;;1.13;0.60;;;8.80;99.90;8.20;95724.00;;;;5065406;28;20211;-51
2021/05/14 03:34:12;;;;;;;0.70;0.40;;;8.80;99.90;8.10;95730.00;;;;5052696;28;20196;-50
2021/05/14 03:37:01;;;;;;;0.70;0.30;;;8.80;99.90;8.20;95728.00;;;;5054114;28;20211;-51
2021/05/14 03:39:52;;;;;;;1.83;0.50;;;8.80;99.90;8.20;95730.00;;;;5065372;28;20204;-54
2021/05/14 03:42:41;;;;;;;0.60;0.60;;;8.80;99.90;8.30;95734.00;;;;5067503;28;20228;-52
2021/05/14 03:45:29;;;;;;;1.37;1.00;;;8.80;99.90;8.30;95743.00;;;;5066067;28;20211;-52
2021/05/14 03:48:18;;;;;;;12.97;5.63;;;8.80;99.90;8.30;95742.00;;;;5066179;28;20208;-54
2021/05/14 03:51:07;;;;;;;284.60;127.60;;;8.80;99.90;8.10;95745.00;;;;5066155;28;20222;-51
2021/05/14 03:53:56;;;;;;;36.40;18.93;;;8.80;99.90;8.20;95735.00;;;;5064673;28;20204;-54
2021/05/14 03:56:44;;;;;;;7.10;3.33;;;8.80;99.90;8.40;95744.00;;;;5065144;28;20212;-51
2021/05/14 03:59:33;;;;;;;7.57;1.03;;;8.80;99.90;8.40;95745.00;;;;5064707;28;20203;-54
2021/05/14 04:02:21;;;;;;;1.00;1.00;;;8.90;99.90;8.30;95757.00;;;;5064901;28;20231;-52
2021/05/14 04:05:11;;;;;;;5.40;1.30;;;8.90;99.90;8.30;95751.00;;;;5052039;28;20674;-53
2021/05/14 04:07:59;;;;;;;2.60;1.13;;;8.90;99.90;8.40;95754.00;;;;5066583;28;20582;-54
2021/05/14 04:11:04;;;;;;;0.70;0.70;;;8.90;99.90;8.30;95748.00;;;;5068218;28;20696;-50
2021/05/14 04:17:04;;;;;;;0.67;0.50;;;8.90;99.90;8.30;95768.00;;;;5056967;28;20204;-52
2021/05/14 04:19:52;;;;;;;0.60;0.60;;;8.90;99.90;8.40;95762.00;;;;5069253;28;20219;-50
2021/05/14 04:22:40;;;;;;;1.13;0.60;;;8.90;99.90;8.50;95763.00;;;;5067121;28;20235;-51
2021/05/14 04:25:30;;;;;;;1.23;0.63;;;8.90;99.90;8.50;95770.00;;;;5066964;28;20204;-51
2021/05/14 04:28:20;;;;;;;0.50;0.50;;;9.00;99.90;8.50;95775.00;;;;5067263;28;20198;-49
2021/05/14 04:31:08;;;;;;;2.23;0.73;;;9.00;99.90;8.50;95775.00;;;;5068353;28;20207;-51
2021/05/14 04:33:57;;;;;;;0.50;0.50;;;9.10;99.90;8.40;95775.00;;;;5068097;28;20693;-52
2021/05/14 04:36:47;;;;;;;0.30;0.30;;;9.10;99.90;8.30;95761.00;;;;5054807;28;20205;-50
2021/05/14 04:39:35;;;;;;;0.90;0.53;;;9.00;99.90;8.30;95770.00;;;;5068214;28;20214;-50
2021/05/14 04:42:23;;;;;;;0.50;0.50;;;9.00;99.90;8.40;95772.00;;;;5069331;28;20227;-50
2021/05/14 04:45:14;;;;;;;0.70;0.37;;;9.00;99.90;8.50;95775.00;;;;5068332;28;20215;-49
2021/05/14 04:48:05;;;;;;;0.60;0.43;;;9.10;99.90;8.60;95781.00;;;;5067354;28;20207;-50
2021/05/14 04:50:53;;;;;;;0.50;0.50;;;9.10;99.90;8.70;95768.00;;;;5068968;28;20208;-51
2021/05/14 04:53:43;;;;;;;0.50;0.50;;;9.20;99.90;8.90;95777.00;;;;5068687;28;20611;-51
2021/05/14 04:56:31;;;;;;;1.03;0.40;;;9.30;99.90;8.90;95786.00;;;;5067624;28;20216;-51
2021/05/14 04:59:19;;;;;;;1.43;0.40;;;9.30;99.90;9.00;95784.00;;;;5068019;28;20204;-52
2021/05/14 05:02:09;;;;;;;0.37;0.30;;;9.40;99.90;8.90;95776.00;;;;5068818;28;20626;-50
2021/05/14 05:04:58;;;;;;;0.50;0.50;;;9.50;99.90;8.90;95778.00;;;;5054061;28;20203;-53
2021/05/14 05:07:47;;;;;;;0.70;0.70;;;9.50;99.90;8.80;95785.00;;;;5067956;28;20196;-54
2021/05/14 05:10:35;;;;;;;1.80;0.77;;;9.50;99.90;9.00;95783.00;;;;5067549;28;20208;-52
2021/05/14 05:13:24;;;;;;;0.83;0.47;;;9.50;99.90;9.30;95792.00;;;;5066560;28;20216;-49
2021/05/14 05:16:12;;;;;;;0.93;0.73;;;9.60;99.90;9.40;95797.00;;;;5054034;28;20204;-50
2021/05/14 05:19:01;;;;;;;1.37;0.70;;;9.70;99.90;9.50;95801.00;;;;5068608;28;20208;-53
2021/05/14 05:21:50;;;;;;;0.90;0.83;;;9.80;99.90;9.50;95805.00;;;;5067388;28;20227;-52
2021/05/14 05:24:38;;;;;;;0.60;0.60;;;9.90;99.90;9.40;95801.00;;;;5067012;28;20195;-50
2021/05/14 05:27:26;;;;;;;0.60;0.60;;;9.90;99.90;9.50;95799.00;;;;5066732;28;20203;-51
2021/05/14 05:30:17;;;;;;;0.80;0.60;;;9.90;99.90;9.70;95807.00;;;;5067078;28;20199;-49
2021/05/14 05:33:05;;;;;;;0.60;0.60;;;10.00;99.90;9.90;95808.00;;;;5066973;28;20220;-49
2021/05/14 05:35:55;;;;;;;0.50;0.50;;;10.20;99.90;9.90;95813.00;;;;5058393;28;20224;-50
2021/05/14 05:38:43;;;;;;;0.60;0.60;;;10.30;99.90;10.10;95812.00;;;;5065224;28;20586;-49
2021/05/14 05:41:31;;;;;;;0.77;0.60;;;10.40;99.90;10.50;95812.00;;;;5066647;28;20208;-53
2021/05/14 05:44:20;;;;;;;0.50;0.50;;;10.60;99.90;10.70;95811.00;;;;5067115;28;20200;-50
2021/05/14 05:47:08;;;;;;;0.53;0.53;;;10.70;99.90;10.90;95807.00;;;;5055573;28;20490;-50
2021/05/14 05:49:56;;;;;;;0.70;0.57;;;10.90;99.90;11.10;95815.00;;;;5065985;28;20608;-51
2021/05/14 05:52:45;;;;;;;0.60;0.60;;;11.20;99.90;11.30;95810.00;;;;5066954;28;20612;-52
2021/05/14 05:55:33;;;;;;;3.43;0.77;;;11.30;99.90;11.50;95810.00;;;;5065509;28;20192;-54
2021/05/14 05:58:22;;;;;;;1.10;1.00;;;11.60;99.90;11.70;95812.00;;;;5066255;28;20208;-50
2021/05/14 06:01:10;;;;;;;2.57;1.03;;;11.70;99.90;11.90;95813.00;;;;5065893;28;20215;-51
2021/05/14 06:03:58;;;;;;;5.23;1.00;;;11.90;99.90;11.90;95821.00;;;;5059922;28;20204;-53
2021/05/14 06:06:47;;;;;;;1.57;1.00;;;12.00;99.90;11.90;95822.00;;;;5055737;28;20863;-49
2021/05/14 06:09:36;;;;;;;4.73;1.47;;;12.10;99.90;11.70;95828.00;;;;5066340;28;20785;-47
2021/05/14 06:12:24;;;;;;;3.57;1.47;;;12.20;99.90;11.80;95825.00;;;;5066123;28;20763;-51
2021/05/14 06:15:13;;;;;;;2.53;1.40;;;12.20;99.90;11.80;95819.00;;;;5065805;28;20205;-51
2021/05/14 06:18:01;;;;;;;3.73;1.33;;;12.20;99.90;11.60;95823.00;;;;5067203;28;20215;-49
2021/05/14 06:20:51;;;;;;;7.00;1.30;;;12.20;99.90;11.60;95821.00;;;;5067020;28;20212;-49
2021/05/14 06:23:39;;;;;;;4.13;1.00;;;12.20;99.90;11.60;95832.00;;;;5065554;28;20281;-51
2021/05/14 06:26:28;;;;;;;1.30;1.20;;;12.10;99.90;11.60;95831.00;;;;5065394;28;20200;-50
2021/05/14 06:29:17;;;;;;;1.03;0.93;;;12.10;99.90;11.70;95836.00;;;;5066670;28;20207;-51
2021/05/14 06:32:06;;;;;;;1.43;1.07;;;12.10;99.90;12.00;95842.00;;;;5064279;28;20227;-51
2021/05/14 06:34:54;;;;;;;2.10;0.83;;;12.20;99.90;12.00;95839.00;;;;5065096;28;20196;-51
2021/05/14 06:37:44;;;;;;;2.10;0.77;;;12.30;99.90;12.00;95845.00;;;;5057764;28;20207;-49
2021/05/14 06:40:32;;;;;;;1.40;1.07;;;12.40;99.90;12.30;95833.00;;;;5065833;28;20203;-52
2021/05/14 06:43:22;;;;;;;0.80;0.80;;;12.50;99.90;12.40;95844.00;;;;5065478;28;20230;-49
2021/05/14 06:46:10;;;;;;;2.67;0.83;;;12.60;99.90;12.90;95848.00;;;;5065604;28;20239;-52
2021/05/14 06:48:59;;;;;;;1.13;0.93;;;12.80;99.90;13.30;95854.00;;;;5058057;28;20207;-54
2021/05/14 06:51:47;;;;;;;1.57;1.00;;;13.10;99.90;13.60;95852.00;;;;5058254;28;20230;-52
2021/05/14 06:54:35;;;;;;;1.93;1.07;;;13.30;99.90;13.70;95861.00;;;;5061821;28;20211;-50
2021/05/14 06:57:24;;;;;;;3.23;0.90;;;13.60;99.90;14.10;95857.00;;;;5066460;28;20204;-49
2021/05/14 07:00:17;;;;;;;3.90;1.17;;;13.90;99.90;14.30;95862.00;;;;5066289;28;20223;-50
2021/05/14 07:03:06;;;;;;;2.40;0.97;;;14.10;99.90;14.40;95866.00;;;;5058837;28;20231;-52
2021/05/14 07:05:55;;;;;;;1.87;0.70;;;14.40;99.90;14.20;95858.00;;;;5063450;28;20838;-49
2021/05/14 07:08:43;;;;;;;1.80;0.60;;;14.60;99.90;14.40;95857.00;;;;5061595;28;20579;-53
2021/05/14 07:11:31;;;;;;;2.87;1.00;;;14.60;99.90;14.80;95863.00;;;;5052606;28;20206;-50
2021/05/14 07:14:20;;;;;;;0.97;0.50;;;14.70;99.90;15.00;95866.00;;;;5064731;28;20207;-53
2021/05/14 07:17:09;;;;;;;2.60;0.30;;;14.90;99.90;15.30;95865.00;;;;5065559;28;20200;-51
2021/05/14 07:19:58;;;;;;;0.40;0.40;;;15.20;99.90;15.70;95865.00;;;;5065238;28;20196;-51
2021/05/14 07:22:46;;;;;;;0.70;0.50;;;15.40;99.90;15.70;95858.00;;;;5051721;28;20220;-53
2021/05/14 07:25:35;;;;;;;0.50;0.20;;;15.60;98.30;15.80;95870.00;;;;5065730;28;20199;-50
2021/05/14 07:28:23;;;;;;;0.40;0.40;;;15.80;94.10;16.10;95865.00;;;;5065219;28;20204;-51
2021/05/14 07:31:11;;;;;;;1.33;0.27;;;16.00;93.20;16.30;95865.00;;;;5066560;28;20200;-55
2021/05/14 07:34:00;;;;;;;0.53;0.33;;;16.20;90.90;16.60;95870.00;;;;5066167;28;20208;-54
2021/05/14 07:36:49;;;;;;;2.20;0.30;;;16.40;91.60;16.00;95858.00;;;;5051767;28;20577;-49
2021/05/14 07:39:38;;;;;;;0.50;0.20;;;16.50;83.20;15.40;95870.00;;;;5064549;28;20220;-51
2021/05/14 07:42:26;;;;;;;0.63;0.30;;;16.40;78.10;16.10;95864.00;;;;5046279;28;20235;-49
2021/05/14 07:45:15;;;;;;;1.10;0.47;;;16.40;78.50;16.80;95868.00;;;;5054581;28;20223;-52
2021/05/14 07:48:20;;;;;;;0.27;0.20;;;16.50;82.50;17.30;95868.00;;;;5053595;28;20203;-50
2021/05/14 07:51:10;;;;;;;0.73;0.30;;;16.80;83.60;17.60;95872.00;;;;5056120;28;20201;-50
2021/05/14 07:53:58;;;;;;;0.40;0.20;;;17.20;82.90;17.70;95866.00;;;;5059427;28;20200;-51
2021/05/14 07:56:46;;;;;;;0.47;0.40;;;17.50;79.40;17.60;95903.00;;;;5056039;28;20862;-52
2021/05/14 07:59:38;;;;;;;0.30;0.30;;;17.70;75.30;17.80;95872.00;;;;5066481;28;20200;-53
2021/05/14 08:02:27;;;;;;;1.63;0.47;;;17.80;75.00;17.70;95893.00;;;;5054151;28;20243;-51
2021/05/14 08:05:15;;;;;;;1.27;0.30;;;17.90;74.70;17.60;95889.00;;;;5068835;28;20696;-49
2021/05/14 08:08:08;;;;;;;0.40;0.30;;;17.90;73.00;17.80;95866.00;;;;5068387;28;20200;-53
2021/05/14 08:10:57;;;;;;;0.60;0.37;;;17.90;73.80;18.40;95865.00;;;;5053492;28;20215;-53
2021/05/14 08:13:45;;;;;;;2.70;0.40;;;18.10;73.50;18.60;95871.00;;;;5060602;28;20211;-52
2021/05/14 08:16:34;;;;;;;3.27;0.50;;;18.40;72.40;18.20;95873.00;;;;5068669;28;20196;-49
2021/05/14 08:19:22;;;;;;;0.70;0.50;;;18.50;68.50;17.90;95875.00;;;;5069864;28;20204;-51
2021/05/14 08:22:10;;;;;;;0.30;0.20;;;18.50;68.30;17.80;95887.00;;;;5068698;28;20234;-49
2021/05/14 08:24:59;;;;;;;0.30;0.20;;;18.30;67.40;17.50;95885.00;;;;5068626;28;20907;-50
2021/05/14 08:27:48;;;;;;;0.67;0.17;;;18.20;66.30;16.60;95891.00;;;;5056194;28;20581;-48
2021/05/14 08:30:36;;;;;;;1.80;0.30;;;17.80;65.00;16.30;95896.00;;;;5069489;28;20603;-54
2021/05/14 08:33:26;;;;;;;0.30;0.20;;;17.30;65.90;16.60;95900.00;;;;5068223;28;20228;-48
2021/05/14 08:36:15;;;;;;;2.20;0.33;;;17.10;67.80;16.50;95905.00;;;;5056488;28;20576;-51
2021/05/14 08:39:05;;;;;;;0.77;0.50;;;17.00;67.00;17.20;95867.00;;;;5056444;28;20207;-55
2021/05/14 08:41:54;;;;;;;1.67;0.30;;;17.10;67.80;18.20;95884.00;;;;5067928;28;20231;-48
2021/05/14 08:44:43;;;;;;;0.20;0.10;;;17.50;69.10;18.80;95880.00;;;;5067614;28;20204;-54
2021/05/14 08:47:31;;;;;;;0.20;0.10;;;17.90;68.50;19.10;95882.00;;;;5069583;28;20208;-51
2021/05/14 08:50:20;;;;;;;0.40;0.20;;;18.20;67.10;19.50;95880.00;;;;5069217;28;20203;-55
2021/05/14 08:53:09;;;;;;;0.67;0.30;;;18.80;65.60;19.50;95882.00;;;;5067870;28;20216;-53
2021/05/14 08:55:58;;;;;;;0.30;0.20;;;19.20;62.90;19.80;95894.00;;;;5067615;28;20211;-51
2021/05/14 08:58:47;;;;;;;0.30;0.10;;;19.40;63.30;19.50;95879.00;;;;5068289;28;20249;-55
2021/05/14 09:01:38;;;;;;;0.43;0.30;;;19.50;60.40;19.80;95880.00;;;;5068345;28;20214;-56
2021/05/14 09:04:31;;;;;;;0.20;0.10;;;19.70;59.30;19.70;95878.00;;;;5063819;28;20227;-53
2021/05/14 09:07:20;;;;;;;0.50;0.30;;;19.80;60.00;20.40;95885.00;;;;5067122;28;20700;-53
2021/05/14 09:10:11;;;;;;;0.20;0.20;;;20.10;59.30;19.80;95898.00;;;;5057094;28;20211;-56
2021/05/14 09:13:00;;;;;;;0.30;0.10;;;20.10;59.50;19.80;95916.00;;;;5066501;28;20227;-53
2021/05/14 09:15:50;;;;;;;0.50;0.30;;;20.10;58.50;19.60;95910.00;;;;5068138;28;20706;-53
2021/05/14 09:18:41;;;;;;;1.50;0.20;;;19.90;59.20;19.50;95916.00;;;;5067868;28;20230;-54
2021/05/14 09:21:29;;;;;;;0.30;0.30;;;19.90;58.80;19.70;95917.00;;;;5066426;28;20204;-55
2021/05/14 09:24:27;;;;;;;0.40;0.20;;;19.80;59.60;19.70;95916.00;;;;5066877;28;20254;-54
2021/05/14 09:27:28;;;;;;;0.70;0.20;;;19.90;59.20;19.70;95913.00;;;;5052853;28;20196;-56
2021/05/14 09:30:17;;;;;;;1.17;0.30;;;19.90;59.00;19.40;95916.00;;;;5060023;28;20207;-55
2021/05/14 09:33:07;;;;;;;0.90;0.20;;;19.80;57.20;19.60;95916.00;;;;5061644;28;20224;-54
2021/05/14 09:35:59;;;;;;;0.27;0.27;;;19.80;57.60;19.80;95912.00;;;;5053926;28;20695;-55
2021/05/14 09:38:50;;;;;;;0.20;0.20;;;19.90;57.50;19.90;95916.00;;;;5065585;28;20215;-55
2021/05/14 09:41:42;;;;;;;0.63;0.17;;;19.90;58.10;19.50;95923.00;;;;5067084;28;20238;-52
2021/05/14 09:44:30;;;;;;;0.30;0.20;;;20.00;57.20;19.10;95916.00;;;;5066648;28;20242;-55
2021/05/14 09:47:31;;;;;;;1.13;0.20;;;19.80;56.40;19.10;95922.00;;;;5055480;28;20204;-56
2021/05/14 09:50:38;;;;;;;0.20;0.13;;;19.70;56.90;19.40;95922.00;;;;5067470;28;20207;-53
2021/05/14 09:53:26;;;;;;;2.70;0.50;;;19.60;57.30;19.30;95915.00;;;;5067190;28;20713;-52
2021/05/14 09:56:26;;;;;;;1.80;0.50;;;19.70;55.30;18.00;95907.00;;;;5066098;28;20201;-55
2021/05/14 09:59:14;;;;;;;0.50;0.30;;;19.30;54.60;18.60;95909.00;;;;5066516;28;20207;-56
2021/05/14 10:02:04;;;;;;;0.93;0.30;;;19.00;55.30;19.50;95906.00;;;;5066555;28;20220;-53
2021/05/14 10:04:53;;;;;;;0.20;0.20;;;19.20;56.00;20.20;95909.00;;;;5052826;28;20239;-54
2021/05/14 10:07:43;;;;;;;0.30;0.20;;;19.50;57.60;20.60;95908.00;;;;5065394;28;20210;-56
2021/05/14 10:10:33;;;;;;;0.40;0.27;;;19.90;57.80;20.80;95917.00;;;;5065625;28;20602;-52
2021/05/14 10:13:21;;;;;;;2.67;0.53;;;20.30;58.00;20.50;95911.00;;;;5065691;28;20208;-54
2021/05/14 10:16:10;;;;;;;0.40;0.40;;;20.50;55.90;20.60;95903.00;;;;5066092;28;20211;-54
2021/05/14 10:18:59;;;;;;;0.23;0.23;;;20.60;55.60;20.80;95899.00;;;;5066093;28;20218;-50
2021/05/14 10:21:47;;;;;;;0.50;0.30;;;20.80;55.10;21.50;95903.00;;;;5067461;28;20236;-53
2021/05/14 10:24:44;;;;;;;0.20;0.20;;;21.00;56.30;21.50;95895.00;;;;5054863;28;20230;-53
2021/05/14 10:27:40;;;;;;;0.20;0.03;;;21.20;53.80;19.60;95899.00;;;;5052902;28;20211;-51
2021/05/14 10:30:29;;;;;;;0.60;0.60;;;21.10;52.00;18.90;95908.00;;;;5065820;28;20663;-53
2021/05/14 10:33:39;;;;;;;1.50;0.10;;;20.60;52.30;19.10;95900.00;;;;5065234;28;20223;-52
2021/05/14 10:36:50;;;;;;;0.20;0.20;;;20.20;53.20;19.90;95906.00;;;;5046345;28;20205;-53
2021/05/14 10:39:40;;;;;;;1.00;0.13;;;20.00;55.30;20.50;95914.00;;;;5066460;28;20223;-51
2021/05/14 10:42:39;;;;;;;0.20;0.20;;;20.10;56.10;20.30;95908.00;;;;5066672;28;20231;-51
2021/05/14 10:45:35;;;;;;;0.20;0.10;;;20.20;56.00;19.90;95911.00;;;;5052771;28;20196;-53
2021/05/14 10:48:24;;;;;;;0.93;0.93;;;20.20;54.10;19.70;95902.00;;;;5065940;28;20219;-51
2021/05/14 10:51:12;;;;;;;0.20;0.20;;;20.20;53.10;20.30;95904.00;;;;5065480;28;20208;-53
2021/05/14 10:54:00;;;;;;;0.50;0.20;;;20.20;54.00;20.50;95892.00;;;;5065506;28;20208;-52
2021/05/14 10:56:50;;;;;;;0.20;0.10;;;20.30;55.00;20.60;95899.00;;;;5053969;28;20591;-51
2021/05/14 10:59:41;;;;;;;0.37;0.30;;;20.40;56.10;20.50;95905.00;;;;5065955;28;20212;-51
2021/05/14 11:02:31;;;;;;;0.30;0.20;;;20.50;56.00;19.70;95906.00;;;;5060567;28;20220;-50
2021/05/14 11:05:27;;;;;;;0.20;0.20;;;20.50;53.30;19.60;95909.00;;;;5064789;28;20219;-51
2021/05/14 11:08:45;;;;;;;0.20;0.20;;;20.30;52.70;19.80;95905.00;;;;5066405;28;20211;-53
2021/05/14 11:11:34;;;;;;;0.33;0.20;;;20.20;53.70;20.10;95896.00;;;;5065527;28;20196;-53
2021/05/14 11:14:23;;;;;;;0.40;0.30;;;20.10;54.90;20.10;95907.00;;;;5064715;28;20693;-53
2021/05/14 11:17:13;;;;;;;0.20;0.20;;;20.20;54.50;20.10;95909.00;;;;5066880;28;20199;-54
2021/05/14 11:20:01;;;;;;;0.30;0.20;;;20.20;54.60;20.00;95902.00;;;;5069243;28;20203;-52
2021/05/14 11:22:50;;;;;;;0.70;0.30;;;20.20;55.20;20.10;95898.00;;;;5068708;28;20227;-52
2021/05/14 11:25:38;;;;;;;1.60;0.40;;;20.20;54.70;20.20;95902.00;;;;5060161;28;20218;-52
2021/05/14 11:28:42;;;;;;;1.40;0.30;;;20.30;55.00;20.40;95903.00;;;;5072088;28;20210;-56
2021/05/14 11:31:31;;;;;;;0.20;0.10;;;20.30;55.40;20.10;95901.00;;;;5059909;28;20200;-56
2021/05/14 11:34:20;;;;;;;0.30;0.30;;;20.40;54.90;20.50;95890.00;;;;5059410;28;20676;-53
2021/05/14 11:37:08;;;;;;;0.40;0.20;;;20.40;55.60;21.10;95890.00;;;;5056042;28;20207;-49
2021/05/14 11:39:58;;;;;;;0.37;0.30;;;20.60;56.50;21.50;95867.00;;;;5058700;28;20212;-50
2021/05/14 11:42:49;;;;;;;0.40;0.40;;;21.00;56.70;22.20;95874.00;;;;5062183;28;20211;-50
2021/05/14 11:45:40;;;;;;;0.50;0.40;;;21.40;54.80;20.90;95873.00;;;;5055255;28;20223;-54
2021/05/14 11:48:29;;;;;;;1.70;0.30;;;21.50;52.90;21.40;95833.00;;;;5061351;28;20212;-53
2021/05/14 11:51:18;;;;;;;0.30;0.30;;;21.60;53.20;21.20;95848.00;;;;5063127;28;20800;-50
2021/05/14 11:54:14;;;;;;;0.50;0.13;;;21.80;53.00;21.00;95882.00;;;;5068873;28;20215;-51
2021/05/14 11:57:03;;;;;;;0.30;0.20;;;21.60;53.20;21.10;95880.00;;;;5069386;28;20216;-52
2021/05/14 11:59:51;;;;;;;0.30;0.20;;;21.50;54.70;21.50;95877.00;;;;5069119;28;20228;-53
2021/05/14 12:02:45;;;;;;;0.30;0.20;;;21.50;55.50;21.60;95883.00;;;;5069730;28;20219;-51
2021/05/14 12:05:34;;;;;;;0.30;0.30;;;21.60;54.80;21.30;95897.00;;;;5069429;28;20260;-51
2021/05/14 12:08:27;;;;;;;0.30;0.30;;;21.60;55.10;21.10;95887.00;;;;5059176;28;20209;-53
2021/05/14 12:11:16;;;;;;;0.70;0.40;;;21.50;54.90;22.00;95906.00;;;;5055121;28;20223;-51
2021/05/14 12:14:05;;;;;;;0.30;0.30;;;21.60;55.50;21.30;95914.00;;;;5067751;28;20299;-53
2021/05/14 12:16:53;;;;;;;1.33;0.53;;;21.60;55.40;20.80;95906.00;;;;5069051;28;20204;-50
2021/05/14 12:19:47;;;;;;;0.60;0.40;;;21.40;54.80;20.90;95905.00;;;;5067905;28;20235;-53
2021/05/14 12:22:41;;;;;;;1.27;0.70;;;21.30;55.00;21.00;95897.00;;;;5055001;28;20224;-54
2021/05/14 12:25:43;;;;;;;0.57;0.37;;;21.20;55.70;19.50;95892.00;;;;5068027;28;20230;-53
2021/05/14 12:28:37;;;;;;;9.33;3.70;;;20.90;53.80;18.80;95904.00;;;;5068889;28;20199;-52
2021/05/14 12:31:32;;;;;;;1.33;0.57;;;20.40;55.00;18.80;95903.00;;;;5067515;28;20577;-52
2021/05/14 12:34:22;;;;;;;2.40;0.93;;;19.90;55.20;18.60;95910.00;;;;5057886;28;20882;-51
2021/05/14 12:37:14;;;;;;;0.50;0.37;;;19.50;55.30;18.40;95905.00;;;;5068833;28;20675;-51
2021/05/14 12:40:03;;;;;;;1.37;0.40;;;19.20;55.80;18.20;95900.00;;;;5067993;28;20223;-50
2021/05/14 12:43:11;;;;;;;0.30;0.20;;;19.00;56.20;18.10;95916.00;;;;5061530;28;20237;-53